Murry, Missouri
Current Conditions -  °F | °C
As of 5:54 PM on Thursday 27 Nov 2014 (Local Time) from KCOU Reporting Station
Clear Clear  
Wind Chill: 31°   Ceiling: Unl
Heat Index: 31°   Visibility: 10mi
Dew Point: 22°   Wind: 0mph
Humidity: 69%   Direction: NA
Pressure: 30.42"   Gusts: NA
Location:  39.0235°N, 92.2896°W
Report Text: KCOU 272354Z 00000KT 10SM CLR M01/M06 A3042 RMK AO2 SLP312 T10061056 10017 21011 58006
Loading
Personal Weather Stations






























Interactive Weather Map New forecast layout! Learn more

10-Day Weather Forecast

Advertisements
Track Severe Weather on mobile